createdAt,value
2018-07-13T00:00:02.599Z,13.22
2018-07-13T00:02:33.008Z,13.03
2018-07-13T00:05:03.440Z,13.45
2018-07-13T00:07:33.791Z,12.35
2018-07-13T00:10:04.484Z,18.82
2018-07-13T00:12:34.504Z,15.03
2018-07-13T00:15:08.813Z,17.65
2018-07-13T00:17:41.153Z,17.40
2018-07-13T00:20:12.622Z,17.65
2018-07-13T00:22:42.884Z,16.93
2018-07-13T00:25:14.278Z,18.25
2018-07-13T00:27:44.324Z,16.70
2018-07-13T00:30:14.863Z,15.63
2018-07-13T00:32:46.856Z,15.68
2018-07-13T00:35:17.474Z,16.07
2018-07-13T00:37:48.575Z,17.60
2018-07-13T00:40:18.824Z,17.65
2018-07-13T00:42:50.650Z,19.98
2018-07-13T00:45:21.112Z,19.55
2018-07-13T00:47:51.298Z,20.15
2018-07-13T00:50:23.482Z,21.23
2018-07-13T00:52:54.118Z,20.65
2018-07-13T00:55:23.464Z,25.62
2018-07-13T00:57:54.640Z,23.75
2018-07-13T01:00:33.693Z,21.48
2018-07-13T01:03:04.996Z,27.17
2018-07-13T01:05:37.014Z,26.27
2018-07-13T01:08:09.061Z,25.40
2018-07-13T01:10:40.510Z,28.83
2018-07-13T01:13:10.352Z,30.00
2018-07-13T01:15:40.118Z,32.10
2018-07-13T01:18:10.244Z,32.58
2018-07-13T01:20:40.269Z,28.85
2018-07-13T01:23:09.703Z,25.45
2018-07-13T01:25:40.517Z,26.60
2018-07-13T01:28:09.932Z,28.10
2018-07-13T01:30:39.716Z,29.98
2018-07-13T01:33:10.489Z,27.60
2018-07-13T01:35:40.816Z,25.75
2018-07-13T01:38:10.254Z,27.20
2018-07-13T01:40:40.025Z,25.20
2018-07-13T01:43:10.103Z,27.58
2018-07-13T01:45:39.864Z,29.77
2018-07-13T01:48:10.361Z,28.07
2018-07-13T01:50:40.161Z,26.50
2018-07-13T01:53:09.931Z,30.35
2018-07-13T01:55:40.707Z,32.93
2018-07-13T01:58:10.789Z,31.73
2018-07-13T02:00:40.660Z,26.20
2018-07-13T02:03:10.440Z,24.92
2018-07-13T02:05:40.244Z,27.45
2018-07-13T02:08:10.274Z,27.98
2018-07-13T02:10:40.030Z,22.75
2018-07-13T02:13:10.312Z,23.22
2018-07-13T02:15:39.930Z,29.10
2018-07-13T02:18:09.770Z,27.45
2018-07-13T02:20:40.120Z,23.55
2018-07-13T02:23:10.217Z,25.17
2018-07-13T02:25:40.249Z,24.40
2018-07-13T02:28:10.271Z,24.05
2018-07-13T02:30:40.039Z,25.72
2018-07-13T02:33:09.786Z,28.87
2018-07-13T02:35:39.430Z,26.68
2018-07-13T02:38:10.088Z,29.23
2018-07-13T02:40:40.225Z,28.17
2018-07-13T02:43:10.105Z,25.15
2018-07-13T02:45:40.646Z,26.37
2018-07-13T02:48:10.725Z,29.32
2018-07-13T02:50:40.405Z,33.40
2018-07-13T02:53:10.565Z,28.23
2018-07-13T02:55:40.568Z,32.58
2018-07-13T02:58:09.950Z,39.10
2018-07-13T03:00:40.544Z,37.83
2018-07-13T03:03:10.423Z,40.00
2018-07-13T03:05:39.922Z,34.18
2018-07-13T03:08:10.678Z,40.33
2018-07-13T03:10:40.351Z,34.15
2018-07-13T03:13:10.104Z,40.90
2018-07-13T03:15:40.006Z,39.05
2018-07-13T03:18:10.736Z,41.83
2018-07-13T03:20:40.665Z,48.02
2018-07-13T03:23:10.427Z,45.67
2018-07-13T03:25:40.190Z,44.83
2018-07-13T03:28:09.944Z,44.10
2018-07-13T03:30:40.432Z,47.45
2018-07-13T03:33:10.104Z,42.38
2018-07-13T03:35:40.973Z,39.63
2018-07-13T03:38:11.628Z,40.12
2018-07-13T03:40:42.675Z,39.10
2018-07-13T03:43:12.679Z,42.17
2018-07-13T03:45:42.426Z,42.73
2018-07-13T03:48:12.185Z,38.83
2018-07-13T03:50:41.955Z,39.63
2018-07-13T03:53:13.076Z,39.73
2018-07-13T03:55:43.475Z,41.40
2018-07-13T03:58:14.245Z,45.60
2018-07-13T04:00:44.188Z,38.58
2018-07-13T04:03:13.943Z,39.13
2018-07-13T04:05:44.755Z,45.12
2018-07-13T04:08:14.566Z,39.58
2018-07-13T04:10:44.512Z,40.43
2018-07-13T04:13:14.084Z,40.65
2018-07-13T04:15:44.026Z,39.05
2018-07-13T04:18:21.284Z,43.58
2018-07-13T04:20:52.965Z,43.52
2018-07-13T04:23:24.643Z,42.60
2018-07-13T04:25:54.723Z,41.30
2018-07-13T04:28:24.663Z,39.75
2018-07-13T04:30:54.740Z,42.03
2018-07-13T04:33:24.506Z,41.80
2018-07-13T04:35:54.262Z,37.55
2018-07-13T04:38:25.143Z,38.78
2018-07-13T04:40:55.846Z,43.90
2018-07-13T04:43:25.789Z,45.00
2018-07-13T04:45:56.643Z,38.55
2018-07-13T04:48:26.581Z,38.42
2018-07-13T04:50:56.484Z,42.95
2018-07-13T04:53:26.424Z,37.78
2018-07-13T04:55:56.183Z,37.05
2018-07-13T04:58:26.465Z,35.63
2018-07-13T05:00:56.346Z,32.73
2018-07-13T05:03:26.109Z,33.78
2018-07-13T05:05:55.871Z,36.40
2018-07-13T05:08:26.674Z,34.35
2018-07-13T05:10:56.668Z,33.30
2018-07-13T05:13:26.429Z,35.38
2018-07-13T05:15:56.198Z,35.35
2018-07-13T05:18:26.043Z,34.53
2018-07-13T05:20:57.391Z,31.70
2018-07-13T05:23:28.755Z,30.50
2018-07-13T05:25:58.738Z,32.83
2018-07-13T05:28:28.644Z,31.82
2018-07-13T05:30:58.265Z,31.35
2018-07-13T05:33:28.344Z,26.48
2018-07-13T05:35:58.246Z,25.15
2018-07-13T05:38:28.357Z,25.90
2018-07-13T05:40:58.273Z,27.80
2018-07-13T05:43:28.164Z,29.12
2018-07-13T05:45:58.101Z,28.57
2018-07-13T05:48:28.002Z,27.77
2018-07-13T05:50:57.949Z,27.75
2018-07-13T05:53:29.395Z,30.00
2018-07-13T05:56:00.486Z,28.77
2018-07-13T05:58:30.245Z,26.75
2018-07-13T06:01:00.190Z,28.35
2018-07-13T06:03:30.023Z,25.30
2018-07-13T06:06:00.808Z,28.32
2018-07-13T06:08:30.883Z,23.47
2018-07-13T06:11:00.826Z,21.42
2018-07-13T06:13:30.907Z,22.25
2018-07-13T06:16:02.038Z,21.93
2018-07-13T06:18:33.075Z,21.07
2018-07-13T06:21:03.841Z,19.62
2018-07-13T06:23:33.546Z,23.02
2018-07-13T06:26:04.619Z,17.85
2018-07-13T06:28:34.723Z,15.98
2018-07-13T06:31:04.667Z,19.70
2018-07-13T06:33:34.518Z,17.23
2018-07-13T06:36:04.646Z,12.85
2018-07-13T06:38:35.361Z,13.53
2018-07-13T06:41:06.048Z,14.13
2018-07-13T06:43:36.804Z,17.25
2018-07-13T06:46:07.076Z,14.75
2018-07-13T06:48:36.962Z,17.42
2018-07-13T06:51:08.008Z,13.75
2018-07-13T06:53:39.366Z,12.15
2018-07-13T06:56:10.401Z,14.43
2018-07-13T06:58:44.945Z,15.18
2018-07-13T07:01:15.646Z,16.45
2018-07-13T07:04:23.561Z,13.43
2018-07-13T07:06:55.626Z,14.85
2018-07-13T07:09:27.587Z,13.70
2018-07-13T07:12:27.636Z,16.52
2018-07-13T07:14:57.622Z,12.98
2018-07-13T07:17:28.759Z,15.00
2018-07-13T07:19:58.884Z,15.53
2018-07-13T07:22:30.195Z,14.05
2018-07-13T07:25:00.206Z,15.98
2018-07-13T07:27:30.083Z,12.90
2018-07-13T07:30:00.034Z,16.52
2018-07-13T07:32:30.853Z,14.73
2018-07-13T07:35:01.605Z,12.75
2018-07-13T07:37:32.278Z,13.03
2018-07-13T07:40:02.291Z,10.20
2018-07-13T07:42:32.098Z,14.45
2018-07-13T07:45:03.164Z,12.07
2018-07-13T07:47:33.178Z,13.60
2018-07-13T07:50:04.329Z,10.13
2018-07-13T07:52:34.406Z,12.23
2018-07-13T07:55:04.482Z,13.95
2018-07-13T07:57:34.176Z,16.55
2018-07-13T08:00:03.867Z,12.95
2018-07-13T08:02:34.677Z,12.93
2018-07-13T08:05:04.807Z,14.03
2018-07-13T08:07:34.789Z,15.15
2018-07-13T08:10:04.820Z,12.35
2018-07-13T08:12:34.726Z,14.70
2018-07-13T08:15:04.665Z,15.10
2018-07-13T08:17:34.425Z,16.62
2018-07-13T08:20:04.509Z,17.42
2018-07-13T08:22:35.364Z,12.33
2018-07-13T08:25:08.643Z,12.68
2018-07-13T08:27:41.079Z,15.10
2018-07-13T08:30:17.442Z,8.03
2018-07-13T08:32:48.436Z,7.90
2018-07-13T08:35:18.564Z,6.78
2018-07-13T08:37:48.743Z,5.97
2018-07-13T08:40:18.404Z,5.40
2018-07-13T08:42:48.348Z,4.80
2018-07-13T08:45:18.206Z,8.20
2018-07-13T08:47:48.324Z,6.47
2018-07-13T08:50:18.434Z,3.85
2018-07-13T08:52:48.483Z,4.05
2018-07-13T08:55:18.419Z,7.30
2018-07-13T08:57:48.974Z,3.40
2018-07-13T09:00:19.649Z,6.25
2018-07-13T09:02:50.355Z,4.00
2018-07-13T09:05:20.027Z,6.70
2018-07-13T09:07:51.166Z,4.28
2018-07-13T09:10:21.924Z,4.85
2018-07-13T09:12:52.630Z,4.53
2018-07-13T09:15:22.722Z,4.65
2018-07-13T09:17:52.803Z,7.17
2018-07-13T09:20:22.749Z,5.60
2018-07-13T09:22:52.651Z,5.15
2018-07-13T09:25:21.741Z,7.70
2018-07-13T09:27:52.490Z,7.25
2018-07-13T09:30:22.097Z,7.37
2018-07-13T09:32:52.815Z,7.12
2018-07-13T09:35:22.577Z,5.62
2018-07-13T09:37:52.007Z,8.13
2018-07-13T09:40:23.012Z,5.22
2018-07-13T09:42:53.776Z,6.25
2018-07-13T09:45:24.447Z,6.15
2018-07-13T09:47:54.638Z,7.12
2018-07-13T09:50:24.345Z,4.87
2018-07-13T09:52:54.606Z,7.33
2018-07-13T09:55:24.075Z,8.78
2018-07-13T09:57:54.552Z,6.58
2018-07-13T10:00:29.526Z,5.65
2018-07-13T10:03:00.266Z,7.87
2018-07-13T10:05:29.859Z,5.17
2018-07-13T10:08:00.942Z,5.83
2018-07-13T10:10:30.712Z,4.60
2018-07-13T10:13:00.822Z,4.28
2018-07-13T10:15:30.772Z,4.53
2018-07-13T10:18:00.969Z,9.95
2018-07-13T10:20:31.661Z,4.40
2018-07-13T10:23:02.414Z,4.90
2018-07-13T10:25:32.501Z,4.75
2018-07-13T10:28:02.437Z,4.65
2018-07-13T10:30:32.198Z,7.00
2018-07-13T10:33:02.413Z,7.50
2018-07-13T10:35:32.127Z,6.20
2018-07-13T10:38:02.857Z,5.53
2018-07-13T10:40:33.147Z,6.12
2018-07-13T10:43:04.609Z,6.72
2018-07-13T10:45:34.980Z,6.83
2018-07-13T10:48:05.135Z,4.75
2018-07-13T10:50:35.495Z,5.72
2018-07-13T10:53:05.890Z,5.78
2018-07-13T10:55:37.249Z,8.55
2018-07-13T10:58:07.297Z,5.97
2018-07-13T11:00:38.101Z,8.93
2018-07-13T11:03:08.494Z,5.83
2018-07-13T11:05:38.577Z,7.05
2018-07-13T11:08:08.981Z,6.37
2018-07-13T11:10:39.701Z,7.17
2018-07-13T11:13:10.365Z,6.12
2018-07-13T11:15:40.556Z,6.70
2018-07-13T11:18:10.224Z,6.03
2018-07-13T11:20:40.388Z,6.53
2018-07-13T11:23:09.965Z,6.22
2018-07-13T11:25:40.454Z,10.68
2018-07-13T11:28:10.576Z,6.95
2018-07-13T11:30:40.321Z,6.85
2018-07-13T11:33:10.476Z,6.03
2018-07-13T11:35:40.036Z,5.50
2018-07-13T11:38:10.568Z,7.65
2018-07-13T11:40:40.276Z,7.00
2018-07-13T11:43:10.286Z,5.65
2018-07-13T11:45:40.176Z,5.53
2018-07-13T11:48:10.436Z,8.50
2018-07-13T11:50:40.336Z,5.85
2018-07-13T11:53:10.095Z,5.28
2018-07-13T11:55:40.175Z,6.95
2018-07-13T11:58:10.531Z,6.03
2018-07-13T12:00:40.549Z,5.55
2018-07-13T12:03:10.733Z,5.80
2018-07-13T12:05:40.680Z,5.80
2018-07-13T12:08:10.574Z,6.65
2018-07-13T12:10:40.337Z,6.72
2018-07-13T12:13:10.042Z,5.53
2018-07-13T12:15:40.891Z,6.05
2018-07-13T12:18:10.516Z,12.78
2018-07-13T12:20:39.949Z,12.05
2018-07-13T12:23:10.865Z,9.35
2018-07-13T12:25:41.387Z,11.48
2018-07-13T12:28:11.872Z,14.35
2018-07-13T12:30:42.924Z,9.95
2018-07-13T12:33:12.581Z,13.13
2018-07-13T12:35:42.810Z,11.35
2018-07-13T12:38:12.747Z,12.07
2018-07-13T12:40:42.897Z,8.68
2018-07-13T12:43:12.806Z,14.85
2018-07-13T12:45:42.060Z,9.75
2018-07-13T12:48:12.573Z,7.42
2018-07-13T12:50:42.503Z,7.45
2018-07-13T12:53:12.266Z,11.45
2018-07-13T12:55:42.344Z,6.90
2018-07-13T12:58:12.195Z,8.68
2018-07-13T13:00:42.086Z,10.05
2018-07-13T13:03:12.934Z,9.25
2018-07-13T13:05:42.996Z,7.25
2018-07-13T13:08:12.835Z,8.20
2018-07-13T13:10:42.434Z,7.10
2018-07-13T13:13:12.481Z,7.22
2018-07-13T13:15:42.563Z,7.60
2018-07-13T13:18:13.455Z,8.63
2018-07-13T13:20:43.684Z,12.95
2018-07-13T13:23:14.045Z,8.68
2018-07-13T13:25:44.127Z,8.55
2018-07-13T13:28:14.366Z,6.80
2018-07-13T13:30:44.328Z,7.37
2018-07-13T13:33:13.947Z,9.33
2018-07-13T13:35:43.843Z,9.53
2018-07-13T13:38:14.835Z,7.22
2018-07-13T13:40:44.963Z,8.05
2018-07-13T13:43:15.404Z,8.55
2018-07-13T13:45:45.446Z,9.33
2018-07-13T13:48:14.592Z,6.05
2018-07-13T13:50:43.951Z,8.83
2018-07-13T13:53:13.749Z,8.18
2018-07-13T13:55:44.465Z,7.25
2018-07-13T13:58:14.353Z,8.13
2018-07-13T14:00:44.244Z,5.30
2018-07-13T14:03:14.182Z,6.75
2018-07-13T14:05:45.321Z,5.00
2018-07-13T14:08:15.816Z,6.25
2018-07-13T14:10:46.244Z,8.63
2018-07-13T14:13:16.249Z,4.62
2018-07-13T14:15:46.642Z,5.28
2018-07-13T14:18:17.454Z,5.62
2018-07-13T14:20:48.311Z,9.05
2018-07-13T14:23:18.001Z,10.20
2018-07-13T14:25:48.532Z,4.50
2018-07-13T14:28:19.253Z,5.53
2018-07-13T14:30:49.689Z,7.83
2018-07-13T14:33:20.254Z,4.20
2018-07-13T14:35:50.515Z,5.92
2018-07-13T14:38:20.643Z,8.13
2018-07-13T14:40:50.591Z,7.33
2018-07-13T14:43:20.804Z,5.22
2018-07-13T14:45:50.439Z,19.55
2018-07-13T14:48:20.008Z,26.82
2018-07-13T14:50:50.353Z,9.10
2018-07-13T14:53:20.496Z,10.82
2018-07-13T14:55:50.221Z,11.63
2018-07-13T14:58:20.183Z,7.62
2018-07-13T15:00:50.410Z,5.55
2018-07-13T15:03:20.349Z,3.75
2018-07-13T15:05:50.454Z,7.92
2018-07-13T15:08:20.516Z,4.78
2018-07-13T15:10:50.183Z,5.47
2018-07-13T15:13:20.485Z,11.45
2018-07-13T15:15:50.101Z,7.08
2018-07-13T15:18:20.637Z,6.40
2018-07-13T15:20:50.047Z,7.53
2018-07-13T15:23:20.479Z,5.75
2018-07-13T15:25:50.435Z,7.85
2018-07-13T15:28:20.498Z,7.70
2018-07-13T15:30:50.406Z,7.70
2018-07-13T15:33:20.288Z,10.82
2018-07-13T15:35:50.024Z,6.30
2018-07-13T15:38:20.822Z,5.90
2018-07-13T15:40:50.647Z,5.55
2018-07-13T15:43:20.770Z,8.08
2018-07-13T15:45:50.987Z,4.62
2018-07-13T15:48:20.523Z,5.10
2018-07-13T15:50:50.182Z,4.37
2018-07-13T15:53:21.302Z,5.90
2018-07-13T15:55:58.430Z,6.20
2018-07-13T15:58:29.081Z,6.03
2018-07-13T16:00:59.899Z,7.83
2018-07-13T16:03:30.186Z,4.70
2018-07-13T16:06:00.370Z,5.22
2018-07-13T16:08:29.870Z,5.70
2018-07-13T16:10:59.862Z,5.90
2018-07-13T16:13:30.000Z,6.28
2018-07-13T16:16:00.056Z,5.15
2018-07-13T16:18:30.208Z,5.90
2018-07-13T16:21:00.173Z,8.93
2018-07-13T16:23:30.293Z,4.83
2018-07-13T16:26:00.905Z,5.10
2018-07-13T16:28:30.533Z,5.35
2018-07-13T16:31:00.280Z,6.97
2018-07-13T16:33:29.811Z,6.25
2018-07-13T16:35:59.952Z,6.95
2018-07-13T16:38:30.702Z,6.45
2018-07-13T16:41:00.284Z,6.78
2018-07-13T16:43:29.671Z,7.37
2018-07-13T16:45:59.734Z,6.70
2018-07-13T16:48:29.963Z,5.20
2018-07-13T16:50:59.458Z,6.05
2018-07-13T16:53:29.381Z,5.28
2018-07-13T16:55:59.680Z,6.85
2018-07-13T16:58:29.889Z,12.13
2018-07-13T17:00:59.866Z,6.30
2018-07-13T17:03:30.268Z,6.35
2018-07-13T17:05:59.693Z,7.40
2018-07-13T17:08:29.860Z,6.12
2018-07-13T17:11:00.087Z,5.15
2018-07-13T17:13:30.384Z,5.75
2018-07-13T17:15:59.922Z,5.80
2018-07-13T17:18:30.099Z,5.35
2018-07-13T17:21:00.835Z,11.35
2018-07-13T17:23:30.970Z,5.70
2018-07-13T17:26:01.363Z,6.42
2018-07-13T17:28:32.036Z,6.17
2018-07-13T17:31:02.760Z,6.75
2018-07-13T17:33:32.847Z,5.65
2018-07-13T17:36:02.886Z,6.05
2018-07-13T17:38:32.757Z,5.97
2018-07-13T17:41:02.659Z,5.33
2018-07-13T17:43:32.101Z,7.15
2018-07-13T17:46:03.011Z,7.83
2018-07-13T17:48:32.900Z,6.83
2018-07-13T17:51:03.091Z,6.12
2018-07-13T17:53:34.024Z,5.25
2018-07-13T17:56:04.590Z,4.72
2018-07-13T17:58:34.584Z,5.03
2018-07-13T18:01:04.370Z,4.75
2018-07-13T18:03:34.083Z,4.87
2018-07-13T18:06:04.957Z,4.72
2018-07-13T18:08:34.713Z,6.17
2018-07-13T18:11:04.663Z,7.65
2018-07-13T18:13:34.852Z,3.60
2018-07-13T18:16:04.663Z,4.97
2018-07-13T18:18:34.572Z,5.78
2018-07-13T18:21:04.013Z,6.87
2018-07-13T18:23:34.827Z,5.05
2018-07-13T18:26:04.639Z,5.30
2018-07-13T18:28:34.259Z,6.15
2018-07-13T18:31:05.067Z,4.28
2018-07-13T18:33:35.528Z,4.08
2018-07-13T18:36:05.863Z,5.05
2018-07-13T18:38:35.579Z,7.87
2018-07-13T18:41:06.346Z,4.20
2018-07-13T18:43:36.263Z,4.45
2018-07-13T18:46:07.049Z,8.28
2018-07-13T18:48:36.872Z,6.53
2018-07-13T18:51:06.892Z,3.83
2018-07-13T18:53:36.658Z,5.37
2018-07-13T18:56:06.098Z,5.17
2018-07-13T18:58:36.907Z,4.65
2018-07-13T19:01:06.951Z,5.78
2018-07-13T19:03:37.632Z,4.95
2018-07-13T19:06:08.759Z,5.15
2018-07-13T19:08:38.736Z,6.95
2018-07-13T19:11:08.504Z,5.75
2018-07-13T19:13:37.937Z,9.00
2018-07-13T19:16:08.431Z,6.53
2018-07-13T19:18:38.416Z,4.47
2018-07-13T19:21:08.182Z,4.30
2018-07-13T19:23:38.983Z,4.85
2018-07-13T19:26:08.979Z,4.30
2018-07-13T19:28:39.197Z,12.47
2018-07-13T19:31:09.941Z,5.97
2018-07-13T19:33:39.556Z,7.10
2018-07-13T19:36:10.367Z,7.03
2018-07-13T19:38:40.666Z,4.78
2018-07-13T19:41:10.246Z,4.25
2018-07-13T19:43:40.601Z,7.55
2018-07-13T19:46:10.277Z,8.93
2018-07-13T19:48:41.097Z,6.83
2018-07-13T19:51:10.921Z,4.70
2018-07-13T19:53:40.823Z,7.37
2018-07-13T19:56:10.909Z,6.67
2018-07-13T19:58:40.986Z,6.78
2018-07-13T20:01:10.513Z,6.35
2018-07-13T20:03:40.644Z,6.50
2018-07-13T20:06:10.405Z,5.37
2018-07-13T20:08:40.438Z,4.83
2018-07-13T20:11:10.568Z,5.90
2018-07-13T20:13:40.966Z,6.40
2018-07-13T20:16:10.277Z,4.37
2018-07-13T20:18:43.448Z,6.67
2018-07-13T20:21:17.424Z,6.53
2018-07-13T20:23:51.396Z,4.53
2018-07-13T20:26:21.942Z,4.10
2018-07-13T20:28:51.630Z,5.35
2018-07-13T20:31:22.055Z,4.47
2018-07-13T20:33:52.453Z,9.08
2018-07-13T20:36:22.429Z,6.70
2018-07-13T20:38:52.185Z,4.15
2018-07-13T20:41:23.957Z,7.28
2018-07-13T20:43:55.062Z,6.00
2018-07-13T20:46:24.420Z,4.85
2018-07-13T20:48:57.080Z,4.72
2018-07-13T20:51:30.466Z,4.67
2018-07-13T20:54:04.047Z,6.75
2018-07-13T20:56:33.734Z,4.37
2018-07-13T20:59:03.520Z,5.12
2018-07-13T21:01:33.960Z,9.00
2018-07-13T21:04:03.587Z,4.08
2018-07-13T21:06:35.772Z,5.65
2018-07-13T21:09:06.991Z,6.80
2018-07-13T21:11:36.465Z,5.50
2018-07-13T21:14:06.060Z,5.22
2018-07-13T21:16:36.599Z,5.85
2018-07-13T21:19:05.686Z,6.85
2018-07-13T21:21:35.356Z,6.15
2018-07-13T21:24:06.264Z,4.42
2018-07-13T21:26:36.348Z,6.62
2018-07-13T21:29:06.745Z,7.15
2018-07-13T21:31:36.049Z,6.45
2018-07-13T21:34:06.841Z,7.72
2018-07-13T21:36:36.887Z,6.45
2018-07-13T21:39:06.950Z,8.28
2018-07-13T21:41:36.985Z,11.88
2018-07-13T21:44:06.885Z,9.85
2018-07-13T21:46:37.287Z,7.50
2018-07-13T21:49:06.492Z,7.37
2018-07-13T21:51:36.391Z,6.40
2018-07-13T21:54:06.090Z,7.35
2018-07-13T21:56:36.646Z,8.30
2018-07-13T21:59:06.673Z,7.08
2018-07-13T22:01:36.750Z,12.30
2018-07-13T22:04:06.784Z,6.80
2018-07-13T22:06:36.818Z,6.97
2018-07-13T22:09:07.092Z,8.45
2018-07-13T22:11:36.802Z,5.97
2018-07-13T22:14:06.561Z,5.00
2018-07-13T22:16:37.109Z,6.05
2018-07-13T22:19:06.725Z,5.45
2018-07-13T22:21:36.681Z,7.60
2018-07-13T22:24:06.111Z,6.67
2018-07-13T22:26:35.935Z,6.67
2018-07-13T22:29:06.671Z,8.00
2018-07-13T22:31:36.805Z,5.35
2018-07-13T22:34:06.564Z,12.00
2018-07-13T22:36:36.181Z,8.08
2018-07-13T22:39:06.629Z,10.88
2018-07-13T22:41:36.669Z,7.08
2018-07-13T22:44:05.935Z,5.92
2018-07-13T22:46:36.610Z,9.13
2018-07-13T22:49:06.091Z,5.53
2018-07-13T22:51:36.027Z,5.42
2018-07-13T22:54:06.107Z,8.85
2018-07-13T22:56:37.242Z,6.33
2018-07-13T22:59:06.961Z,6.20
2018-07-13T23:01:36.422Z,7.45
2018-07-13T23:04:06.005Z,9.08
2018-07-13T23:06:35.656Z,12.47
2018-07-13T23:09:07.001Z,7.75
2018-07-13T23:11:37.446Z,6.15
2018-07-13T23:14:08.321Z,7.80
2018-07-13T23:16:38.800Z,9.40
2018-07-13T23:19:08.826Z,7.42
2018-07-13T23:21:38.916Z,5.85
2018-07-13T23:24:08.985Z,6.62
2018-07-13T23:26:39.586Z,6.03
2018-07-13T23:29:09.526Z,5.50
2018-07-13T23:31:39.544Z,6.40
2018-07-13T23:34:09.626Z,8.25
2018-07-13T23:36:40.117Z,7.83
2018-07-13T23:39:09.786Z,5.37
2018-07-13T23:41:40.599Z,7.15
2018-07-13T23:44:10.600Z,11.60
2018-07-13T23:46:40.976Z,6.80
2018-07-13T23:49:10.733Z,8.35
2018-07-13T23:51:40.501Z,5.78
2018-07-13T23:54:10.401Z,7.15
2018-07-13T23:56:40.332Z,8.13
2018-07-13T23:59:10.101Z,12.82
